FTTY

Faya Largeau Airport

Chad
METAR FTTY 201300Z 04006KT CAVOK 40/07 Q1012
Observed Flight Rules
Oct-20 @ 13:00 UTC (50 minutes ago) Visual Flight Rules
Wind Visibility Clouds
40° at 6 knots 10,000+ meters
  • Clear skies
Temperatures Readings
Current 40°C / 104°F
Dewpoint 7°C / 45°F
Humidity 13%
Altimeter 29.88" Hg
Pressure 1012 hPa
Elevation 234
METAR FTTY 201300Z 04006KT CAVOK 40/07 Q1012
Observed Flight Rules
Oct-20 @ 13:00 UTC
(50 minutes ago)
VFR
Wind Visibility
40° at 6 knots 10,000+ meters
Clouds
  • Clear skies
Temperature Dewpoint
40°C / 104°F 7°C / 45°F
Humidity Altimeter Pressure
13% 29.88" Hg 1012 hPa